sensor_id;sensor_type;location;lat;lon;timestamp;temperature;humidity
26952;DHT22;14507;52.418;13.398;2023-04-27T00:01:13;8.30;99.90
26952;DHT22;14507;52.418;13.398;2023-04-27T00:03:38;8.20;99.90
26952;DHT22;14507;52.418;13.398;2023-04-27T00:06:04;8.20;99.90
26952;DHT22;14507;52.418;13.398;2023-04-27T00:08:30;8.20;99.90
26952;DHT22;14507;52.418;13.398;2023-04-27T00:10:56;8.10;99.90
26952;DHT22;14507;52.418;13.398;2023-04-27T00:13:22;8.10;99.90
26952;DHT22;14507;52.418;13.398;2023-04-27T00:15:47;8.20;99.90
26952;DHT22;14507;52.418;13.398;2023-04-27T00:18:13;8.20;99.90
26952;DHT22;14507;52.418;13.398;2023-04-27T00:20:39;8.20;99.90
26952;DHT22;14507;52.418;13.398;2023-04-27T00:23:05;8.20;99.70
26952;DHT22;14507;52.418;13.398;2023-04-27T00:25:31;8.20;99.90
26952;DHT22;14507;52.418;13.398;2023-04-27T00:27:57;8.10;99.90
26952;DHT22;14507;52.418;13.398;2023-04-27T00:30:23;8.10;99.90
26952;DHT22;14507;52.418;13.398;2023-04-27T00:32:48;8.10;99.90
26952;DHT22;14507;52.418;13.398;2023-04-27T00:35:14;8.10;99.90
26952;DHT22;14507;52.418;13.398;2023-04-27T00:37:40;8.10;99.90
26952;DHT22;14507;52.418;13.398;2023-04-27T00:40:06;8.10;99.90
26952;DHT22;14507;52.418;13.398;2023-04-27T00:42:33;8.10;99.90
26952;DHT22;14507;52.418;13.398;2023-04-27T00:44:58;8.00;99.90
26952;DHT22;14507;52.418;13.398;2023-04-27T00:47:24;8.00;99.90
26952;DHT22;14507;52.418;13.398;2023-04-27T00:49:50;8.00;99.90
26952;DHT22;14507;52.418;13.398;2023-04-27T00:52:16;8.00;99.90
26952;DHT22;14507;52.418;13.398;2023-04-27T00:54:44;8.00;99.90
26952;DHT22;14507;52.418;13.398;2023-04-27T00:57:09;8.00;99.90
26952;DHT22;14507;52.418;13.398;2023-04-27T00:59:35;8.00;99.90
26952;DHT22;14507;52.418;13.398;2023-04-27T01:02:01;8.00;99.90
26952;DHT22;14507;52.418;13.398;2023-04-27T01:04:27;8.00;99.90
26952;DHT22;14507;52.418;13.398;2023-04-27T01:06:54;8.00;99.90
26952;DHT22;14507;52.418;13.398;2023-04-27T01:09:19;8.00;99.90
26952;DHT22;14507;52.418;13.398;2023-04-27T01:11:46;7.90;99.90
26952;DHT22;14507;52.418;13.398;2023-04-27T01:14:11;8.00;99.90
26952;DHT22;14507;52.418;13.398;2023-04-27T01:16:37;8.00;99.90
26952;DHT22;14507;52.418;13.398;2023-04-27T01:19:03;8.00;99.90
26952;DHT22;14507;52.418;13.398;2023-04-27T01:21:29;8.00;99.90
26952;DHT22;14507;52.418;13.398;2023-04-27T01:23:55;7.90;99.90
26952;DHT22;14507;52.418;13.398;2023-04-27T01:26:21;8.00;99.90
26952;DHT22;14507;52.418;13.398;2023-04-27T01:28:47;8.00;99.90
26952;DHT22;14507;52.418;13.398;2023-04-27T01:31:12;8.00;99.90
26952;DHT22;14507;52.418;13.398;2023-04-27T01:33:39;8.00;99.90
26952;DHT22;14507;52.418;13.398;2023-04-27T01:36:05;7.90;99.90
26952;DHT22;14507;52.418;13.398;2023-04-27T01:38:34;7.90;99.90
26952;DHT22;14507;52.418;13.398;2023-04-27T01:41:00;7.90;99.90
26952;DHT22;14507;52.418;13.398;2023-04-27T01:43:29;7.90;99.90
26952;DHT22;14507;52.418;13.398;2023-04-27T01:45:56;7.90;99.90
26952;DHT22;14507;52.418;13.398;2023-04-27T01:48:21;7.90;99.90
26952;DHT22;14507;52.418;13.398;2023-04-27T01:50:47;7.90;99.90
26952;DHT22;14507;52.418;13.398;2023-04-27T01:53:13;7.90;99.90
26952;DHT22;14507;52.418;13.398;2023-04-27T01:55:38;7.90;99.90
26952;DHT22;14507;52.418;13.398;2023-04-27T01:58:04;7.90;99.90
26952;DHT22;14507;52.418;13.398;2023-04-27T02:00:30;7.80;99.90
26952;DHT22;14507;52.418;13.398;2023-04-27T02:02:55;7.90;99.90
26952;DHT22;14507;52.418;13.398;2023-04-27T02:05:25;7.80;99.90
26952;DHT22;14507;52.418;13.398;2023-04-27T02:07:51;7.80;99.90
26952;DHT22;14507;52.418;13.398;2023-04-27T02:10:16;7.80;99.90
26952;DHT22;14507;52.418;13.398;2023-04-27T02:12:42;7.80;99.90
26952;DHT22;14507;52.418;13.398;2023-04-27T02:15:08;7.80;99.90
26952;DHT22;14507;52.418;13.398;2023-04-27T02:17:34;7.80;99.90
26952;DHT22;14507;52.418;13.398;2023-04-27T02:20:00;7.80;99.90
26952;DHT22;14507;52.418;13.398;2023-04-27T02:22:25;7.80;99.90
26952;DHT22;14507;52.418;13.398;2023-04-27T02:24:51;7.80;99.90
26952;DHT22;14507;52.418;13.398;2023-04-27T02:27:17;7.70;99.90
26952;DHT22;14507;52.418;13.398;2023-04-27T02:29:42;7.70;99.90
26952;DHT22;14507;52.418;13.398;2023-04-27T02:32:08;7.70;99.90
26952;DHT22;14507;52.418;13.398;2023-04-27T02:34:34;7.60;99.90
26952;DHT22;14507;52.418;13.398;2023-04-27T02:36:59;7.60;99.90
26952;DHT22;14507;52.418;13.398;2023-04-27T02:39:25;7.60;99.90
26952;DHT22;14507;52.418;13.398;2023-04-27T02:41:51;7.60;99.90
26952;DHT22;14507;52.418;13.398;2023-04-27T02:44:16;7.60;99.90
26952;DHT22;14507;52.418;13.398;2023-04-27T02:46:42;7.60;99.90
26952;DHT22;14507;52.418;13.398;2023-04-27T02:49:07;7.60;99.90
26952;DHT22;14507;52.418;13.398;2023-04-27T02:51:33;7.60;99.90
26952;DHT22;14507;52.418;13.398;2023-04-27T02:53:59;7.60;99.90
26952;DHT22;14507;52.418;13.398;2023-04-27T02:56:24;7.60;99.90
26952;DHT22;14507;52.418;13.398;2023-04-27T02:58:50;7.60;99.90
26952;DHT22;14507;52.418;13.398;2023-04-27T03:01:16;7.60;99.90
26952;DHT22;14507;52.418;13.398;2023-04-27T03:03:45;7.60;99.90
26952;DHT22;14507;52.418;13.398;2023-04-27T03:06:12;7.60;99.90
26952;DHT22;14507;52.418;13.398;2023-04-27T03:08:37;7.60;99.90
26952;DHT22;14507;52.418;13.398;2023-04-27T03:11:03;7.50;99.90
26952;DHT22;14507;52.418;13.398;2023-04-27T03:13:29;7.60;99.90
26952;DHT22;14507;52.418;13.398;2023-04-27T03:15:54;7.60;99.90
26952;DHT22;14507;52.418;13.398;2023-04-27T03:18:20;7.50;99.90
26952;DHT22;14507;52.418;13.398;2023-04-27T03:20:46;7.50;99.90
26952;DHT22;14507;52.418;13.398;2023-04-27T03:23:11;7.50;99.90
26952;DHT22;14507;52.418;13.398;2023-04-27T03:25:37;7.50;99.90
26952;DHT22;14507;52.418;13.398;2023-04-27T03:28:03;7.50;99.90
26952;DHT22;14507;52.418;13.398;2023-04-27T03:30:29;7.50;99.90
26952;DHT22;14507;52.418;13.398;2023-04-27T03:32:54;7.50;99.90
26952;DHT22;14507;52.418;13.398;2023-04-27T03:35:20;7.50;99.90
26952;DHT22;14507;52.418;13.398;2023-04-27T03:37:46;7.50;99.90
26952;DHT22;14507;52.418;13.398;2023-04-27T03:40:12;7.50;99.90
26952;DHT22;14507;52.418;13.398;2023-04-27T03:42:39;7.50;99.90
26952;DHT22;14507;52.418;13.398;2023-04-27T03:45:05;7.50;99.90
26952;DHT22;14507;52.418;13.398;2023-04-27T03:47:31;7.40;99.90
26952;DHT22;14507;52.418;13.398;2023-04-27T03:49:57;7.50;99.90
26952;DHT22;14507;52.418;13.398;2023-04-27T03:52:22;7.40;99.90
26952;DHT22;14507;52.418;13.398;2023-04-27T03:54:48;7.40;99.90
26952;DHT22;14507;52.418;13.398;2023-04-27T03:57:14;7.40;99.90
26952;DHT22;14507;52.418;13.398;2023-04-27T03:59:40;7.40;99.90
26952;DHT22;14507;52.418;13.398;2023-04-27T04:02:06;7.40;99.90
26952;DHT22;14507;52.418;13.398;2023-04-27T04:04:32;7.40;99.90
26952;DHT22;14507;52.418;13.398;2023-04-27T04:06:58;7.40;99.90
26952;DHT22;14507;52.418;13.398;2023-04-27T04:09:24;7.40;99.90
26952;DHT22;14507;52.418;13.398;2023-04-27T04:11:51;7.40;99.90
26952;DHT22;14507;52.418;13.398;2023-04-27T04:14:16;7.40;99.90
26952;DHT22;14507;52.418;13.398;2023-04-27T04:16:42;7.40;99.90
26952;DHT22;14507;52.418;13.398;2023-04-27T04:19:07;7.50;99.90
26952;DHT22;14507;52.418;13.398;2023-04-27T04:21:33;7.40;99.90
26952;DHT22;14507;52.418;13.398;2023-04-27T04:23:59;7.50;99.90
26952;DHT22;14507;52.418;13.398;2023-04-27T04:26:24;7.40;99.90
26952;DHT22;14507;52.418;13.398;2023-04-27T04:28:51;7.50;99.90
26952;DHT22;14507;52.418;13.398;2023-04-27T04:31:17;7.50;99.90
26952;DHT22;14507;52.418;13.398;2023-04-27T04:33:42;7.50;99.90
26952;DHT22;14507;52.418;13.398;2023-04-27T04:36:08;7.50;99.90
26952;DHT22;14507;52.418;13.398;2023-04-27T04:38:35;7.50;99.90
26952;DHT22;14507;52.418;13.398;2023-04-27T04:41:01;7.50;99.90
26952;DHT22;14507;52.418;13.398;2023-04-27T04:43:26;7.40;99.90
26952;DHT22;14507;52.418;13.398;2023-04-27T04:45:52;7.50;99.90
26952;DHT22;14507;52.418;13.398;2023-04-27T04:48:18;7.50;99.90
26952;DHT22;14507;52.418;13.398;2023-04-27T04:50:44;7.50;99.90
26952;DHT22;14507;52.418;13.398;2023-04-27T04:53:10;7.50;99.90
26952;DHT22;14507;52.418;13.398;2023-04-27T04:55:36;7.50;99.90
26952;DHT22;14507;52.418;13.398;2023-04-27T04:58:01;7.50;99.90
26952;DHT22;14507;52.418;13.398;2023-04-27T05:00:27;7.50;99.90
26952;DHT22;14507;52.418;13.398;2023-04-27T05:02:53;7.60;99.90
26952;DHT22;14507;52.418;13.398;2023-04-27T05:05:18;7.60;99.90
26952;DHT22;14507;52.418;13.398;2023-04-27T05:07:44;7.50;99.90
26952;DHT22;14507;52.418;13.398;2023-04-27T05:10:10;7.60;99.90
26952;DHT22;14507;52.418;13.398;2023-04-27T05:12:36;7.60;99.90
26952;DHT22;14507;52.418;13.398;2023-04-27T05:15:01;7.60;99.90
26952;DHT22;14507;52.418;13.398;2023-04-27T05:17:27;7.60;99.90
26952;DHT22;14507;52.418;13.398;2023-04-27T05:19:53;7.70;99.90
26952;DHT22;14507;52.418;13.398;2023-04-27T05:22:19;7.70;99.90
26952;DHT22;14507;52.418;13.398;2023-04-27T05:24:44;7.70;99.90
26952;DHT22;14507;52.418;13.398;2023-04-27T05:27:12;7.80;99.90
26952;DHT22;14507;52.418;13.398;2023-04-27T05:29:39;7.80;99.90
26952;DHT22;14507;52.418;13.398;2023-04-27T05:32:05;7.90;99.90
26952;DHT22;14507;52.418;13.398;2023-04-27T05:34:31;7.90;99.90
26952;DHT22;14507;52.418;13.398;2023-04-27T05:36:56;8.00;99.90
26952;DHT22;14507;52.418;13.398;2023-04-27T05:39:22;8.10;99.90
26952;DHT22;14507;52.418;13.398;2023-04-27T05:41:47;8.10;99.90
26952;DHT22;14507;52.418;13.398;2023-04-27T05:44:13;8.20;99.90
26952;DHT22;14507;52.418;13.398;2023-04-27T05:46:39;8.40;99.90
26952;DHT22;14507;52.418;13.398;2023-04-27T05:49:05;8.40;99.90
26952;DHT22;14507;52.418;13.398;2023-04-27T05:51:31;8.50;99.90
26952;DHT22;14507;52.418;13.398;2023-04-27T05:53:57;8.60;99.90
26952;DHT22;14507;52.418;13.398;2023-04-27T05:56:24;8.70;99.90
26952;DHT22;14507;52.418;13.398;2023-04-27T05:58:50;8.80;99.90
26952;DHT22;14507;52.418;13.398;2023-04-27T06:01:16;8.90;99.90
26952;DHT22;14507;52.418;13.398;2023-04-27T06:03:41;9.00;99.90
26952;DHT22;14507;52.418;13.398;2023-04-27T06:06:07;9.10;99.00
26952;DHT22;14507;52.418;13.398;2023-04-27T06:08:33;9.20;99.50
26952;DHT22;14507;52.418;13.398;2023-04-27T06:11:01;9.30;99.50
26952;DHT22;14507;52.418;13.398;2023-04-27T06:13:29;9.40;98.80
26952;DHT22;14507;52.418;13.398;2023-04-27T06:15:55;9.50;98.50
26952;DHT22;14507;52.418;13.398;2023-04-27T06:18:21;9.50;98.70
26952;DHT22;14507;52.418;13.398;2023-04-27T06:20:46;9.60;98.30
26952;DHT22;14507;52.418;13.398;2023-04-27T06:23:12;9.70;97.80
26952;DHT22;14507;52.418;13.398;2023-04-27T06:25:38;9.80;98.70
26952;DHT22;14507;52.418;13.398;2023-04-27T06:28:05;9.90;97.70
26952;DHT22;14507;52.418;13.398;2023-04-27T06:30:30;10.10;97.10
26952;DHT22;14507;52.418;13.398;2023-04-27T06:32:56;10.20;96.90
26952;DHT22;14507;52.418;13.398;2023-04-27T06:35:22;10.40;96.50
26952;DHT22;14507;52.418;13.398;2023-04-27T06:37:47;10.80;96.20
26952;DHT22;14507;52.418;13.398;2023-04-27T06:40:13;11.40;94.90
26952;DHT22;14507;52.418;13.398;2023-04-27T06:42:39;12.00;93.80
26952;DHT22;14507;52.418;13.398;2023-04-27T06:45:05;12.40;92.70
26952;DHT22;14507;52.418;13.398;2023-04-27T06:47:31;12.60;92.00
26952;DHT22;14507;52.418;13.398;2023-04-27T06:49:57;13.00;91.50
26952;DHT22;14507;52.418;13.398;2023-04-27T06:52:22;13.50;90.60
26952;DHT22;14507;52.418;13.398;2023-04-27T06:54:48;13.90;88.60
26952;DHT22;14507;52.418;13.398;2023-04-27T06:57:14;14.30;86.50
26952;DHT22;14507;52.418;13.398;2023-04-27T06:59:40;14.70;83.20
26952;DHT22;14507;52.418;13.398;2023-04-27T07:02:06;14.80;83.70
26952;DHT22;14507;52.418;13.398;2023-04-27T07:04:32;14.60;82.60
26952;DHT22;14507;52.418;13.398;2023-04-27T07:06:57;14.60;81.50
26952;DHT22;14507;52.418;13.398;2023-04-27T07:09:23;14.80;82.50
26952;DHT22;14507;52.418;13.398;2023-04-27T07:11:49;15.40;80.80
26952;DHT22;14507;52.418;13.398;2023-04-27T07:14:14;15.80;79.60
26952;DHT22;14507;52.418;13.398;2023-04-27T07:16:40;16.40;77.80
26952;DHT22;14507;52.418;13.398;2023-04-27T07:19:08;16.80;75.80
26952;DHT22;14507;52.418;13.398;2023-04-27T07:21:34;17.00;74.10
26952;DHT22;14507;52.418;13.398;2023-04-27T07:23:59;16.80;73.30
26952;DHT22;14507;52.418;13.398;2023-04-27T07:26:25;16.60;73.30
26952;DHT22;14507;52.418;13.398;2023-04-27T07:28:51;16.30;74.60
26952;DHT22;14507;52.418;13.398;2023-04-27T07:31:17;16.00;74.50
26952;DHT22;14507;52.418;13.398;2023-04-27T07:33:42;15.90;74.50
26952;DHT22;14507;52.418;13.398;2023-04-27T07:36:08;16.00;75.60
26952;DHT22;14507;52.418;13.398;2023-04-27T07:38:34;16.40;73.50
26952;DHT22;14507;52.418;13.398;2023-04-27T07:41:00;16.90;73.50
26952;DHT22;14507;52.418;13.398;2023-04-27T07:43:27;17.20;71.90
26952;DHT22;14507;52.418;13.398;2023-04-27T07:45:53;17.90;70.10
26952;DHT22;14507;52.418;13.398;2023-04-27T07:48:19;18.40;67.90
26952;DHT22;14507;52.418;13.398;2023-04-27T07:50:46;18.10;68.70
26952;DHT22;14507;52.418;13.398;2023-04-27T07:53:11;17.80;68.80
26952;DHT22;14507;52.418;13.398;2023-04-27T07:55:37;17.40;68.80
26952;DHT22;14507;52.418;13.398;2023-04-27T07:58:03;17.10;68.30
26952;DHT22;14507;52.418;13.398;2023-04-27T08:00:29;16.80;67.70
26952;DHT22;14507;52.418;13.398;2023-04-27T08:02:55;16.50;68.90
26952;DHT22;14507;52.418;13.398;2023-04-27T08:05:21;16.30;68.80
26952;DHT22;14507;52.418;13.398;2023-04-27T08:07:46;15.90;70.60
26952;DHT22;14507;52.418;13.398;2023-04-27T08:10:13;15.50;73.00
26952;DHT22;14507;52.418;13.398;2023-04-27T08:12:38;15.20;72.10
26952;DHT22;14507;52.418;13.398;2023-04-27T08:15:05;15.00;71.80
26952;DHT22;14507;52.418;13.398;2023-04-27T08:17:31;14.70;72.00
26952;DHT22;14507;52.418;13.398;2023-04-27T08:19:57;14.40;73.00
26952;DHT22;14507;52.418;13.398;2023-04-27T08:22:23;14.00;73.70
26952;DHT22;14507;52.418;13.398;2023-04-27T08:24:48;14.10;75.60
26952;DHT22;14507;52.418;13.398;2023-04-27T08:27:14;14.70;75.10
26952;DHT22;14507;52.418;13.398;2023-04-27T08:29:44;15.10;72.20
26952;DHT22;14507;52.418;13.398;2023-04-27T08:32:14;15.10;72.40
26952;DHT22;14507;52.418;13.398;2023-04-27T08:34:40;15.00;72.40
26952;DHT22;14507;52.418;13.398;2023-04-27T08:37:06;14.80;72.50
26952;DHT22;14507;52.418;13.398;2023-04-27T08:39:32;14.70;73.00
26952;DHT22;14507;52.418;13.398;2023-04-27T08:41:58;14.50;73.20
26952;DHT22;14507;52.418;13.398;2023-04-27T08:44:24;14.40;72.90
26952;DHT22;14507;52.418;13.398;2023-04-27T08:46:50;14.30;72.80
26952;DHT22;14507;52.418;13.398;2023-04-27T08:49:16;14.10;73.30
26952;DHT22;14507;52.418;13.398;2023-04-27T08:51:42;13.70;79.60
26952;DHT22;14507;52.418;13.398;2023-04-27T08:54:08;13.50;78.50
26952;DHT22;14507;52.418;13.398;2023-04-27T08:56:34;13.30;78.60
26952;DHT22;14507;52.418;13.398;2023-04-27T08:59:00;13.00;79.20
26952;DHT22;14507;52.418;13.398;2023-04-27T09:01:29;12.70;79.00
26952;DHT22;14507;52.418;13.398;2023-04-27T09:03:59;12.40;80.80
26952;DHT22;14507;52.418;13.398;2023-04-27T09:06:32;12.20;80.80
26952;DHT22;14507;52.418;13.398;2023-04-27T09:08:59;12.20;81.70
26952;DHT22;14507;52.418;13.398;2023-04-27T09:11:36;12.20;82.80
26952;DHT22;14507;52.418;13.398;2023-04-27T09:14:16;12.20;82.20
26952;DHT22;14507;52.418;13.398;2023-04-27T09:16:42;12.20;83.50
26952;DHT22;14507;52.418;13.398;2023-04-27T09:19:09;12.20;83.90
26952;DHT22;14507;52.418;13.398;2023-04-27T09:21:34;12.20;84.00
26952;DHT22;14507;52.418;13.398;2023-04-27T09:24:11;12.20;82.00
26952;DHT22;14507;52.418;13.398;2023-04-27T09:26:37;12.00;83.10
26952;DHT22;14507;52.418;13.398;2023-04-27T09:29:02;11.90;84.00
26952;DHT22;14507;52.418;13.398;2023-04-27T09:31:36;11.90;84.20
26952;DHT22;14507;52.418;13.398;2023-04-27T09:34:05;12.10;85.10
26952;DHT22;14507;52.418;13.398;2023-04-27T09:36:31;12.60;85.10
26952;DHT22;14507;52.418;13.398;2023-04-27T09:39:00;13.10;83.60
26952;DHT22;14507;52.418;13.398;2023-04-27T09:41:30;13.70;81.90
26952;DHT22;14507;52.418;13.398;2023-04-27T09:44:00;14.20;77.90
26952;DHT22;14507;52.418;13.398;2023-04-27T09:46:27;14.10;75.80
26952;DHT22;14507;52.418;13.398;2023-04-27T09:48:55;13.90;77.70
26952;DHT22;14507;52.418;13.398;2023-04-27T09:51:21;13.70;77.10
26952;DHT22;14507;52.418;13.398;2023-04-27T09:53:51;13.60;77.00
26952;DHT22;14507;52.418;13.398;2023-04-27T09:59:23;13.30;79.30
26952;DHT22;14507;52.418;13.398;2023-04-27T10:01:54;13.10;77.40
26952;DHT22;14507;52.418;13.398;2023-04-27T10:07:25;12.80;78.80
26952;DHT22;14507;52.418;13.398;2023-04-27T10:09:51;12.70;78.90
26952;DHT22;14507;52.418;13.398;2023-04-27T10:12:27;12.50;80.60
26952;DHT22;14507;52.418;13.398;2023-04-27T10:14:57;12.40;81.40
26952;DHT22;14507;52.418;13.398;2023-04-27T10:17:28;12.30;82.30
26952;DHT22;14507;52.418;13.398;2023-04-27T10:19:57;12.20;80.90
26952;DHT22;14507;52.418;13.398;2023-04-27T10:22:23;12.10;82.90
26952;DHT22;14507;52.418;13.398;2023-04-27T10:24:50;12.00;79.20
26952;DHT22;14507;52.418;13.398;2023-04-27T10:27:18;11.90;80.70
26952;DHT22;14507;52.418;13.398;2023-04-27T10:29:45;12.00;78.70
26952;DHT22;14507;52.418;13.398;2023-04-27T10:32:17;12.00;80.70
26952;DHT22;14507;52.418;13.398;2023-04-27T10:34:43;12.10;79.10
26952;DHT22;14507;52.418;13.398;2023-04-27T10:37:11;12.00;79.30
26952;DHT22;14507;52.418;13.398;2023-04-27T10:39:42;12.00;80.40
26952;DHT22;14507;52.418;13.398;2023-04-27T10:42:08;12.10;78.90
26952;DHT22;14507;52.418;13.398;2023-04-27T10:44:35;12.20;80.30
26952;DHT22;14507;52.418;13.398;2023-04-27T10:47:11;12.40;79.10
26952;DHT22;14507;52.418;13.398;2023-04-27T10:49:38;12.60;80.60
26952;DHT22;14507;52.418;13.398;2023-04-27T10:52:04;12.90;78.80
26952;DHT22;14507;52.418;13.398;2023-04-27T10:54:31;13.10;78.40
26952;DHT22;14507;52.418;13.398;2023-04-27T10:57:07;13.40;77.60
26952;DHT22;14507;52.418;13.398;2023-04-27T10:59:51;13.70;75.00
26952;DHT22;14507;52.418;13.398;2023-04-27T11:02:25;14.00;74.20
26952;DHT22;14507;52.418;13.398;2023-04-27T11:04:51;14.10;75.80
26952;DHT22;14507;52.418;13.398;2023-04-27T11:07:24;14.10;73.60
26952;DHT22;14507;52.418;13.398;2023-04-27T11:09:50;14.00;72.00
26952;DHT22;14507;52.418;13.398;2023-04-27T11:12:16;13.80;71.20
26952;DHT22;14507;52.418;13.398;2023-04-27T11:14:42;13.70;72.60
26952;DHT22;14507;52.418;13.398;2023-04-27T11:17:08;13.60;73.10
26952;DHT22;14507;52.418;13.398;2023-04-27T11:19:46;13.50;72.60
26952;DHT22;14507;52.418;13.398;2023-04-27T11:22:14;13.40;73.60
26952;DHT22;14507;52.418;13.398;2023-04-27T11:24:48;13.30;72.50
26952;DHT22;14507;52.418;13.398;2023-04-27T11:27:14;13.30;73.90
26952;DHT22;14507;52.418;13.398;2023-04-27T11:29:40;13.10;74.20
26952;DHT22;14507;52.418;13.398;2023-04-27T11:32:06;13.10;74.70
26952;DHT22;14507;52.418;13.398;2023-04-27T11:34:31;13.30;76.50
26952;DHT22;14507;52.418;13.398;2023-04-27T11:37:05;13.50;76.50
26952;DHT22;14507;52.418;13.398;2023-04-27T11:39:37;13.70;74.60
26952;DHT22;14507;52.418;13.398;2023-04-27T11:42:16;13.90;71.10
26952;DHT22;14507;52.418;13.398;2023-04-27T11:44:48;14.00;71.90
26952;DHT22;14507;52.418;13.398;2023-04-27T11:47:16;13.90;72.80
26952;DHT22;14507;52.418;13.398;2023-04-27T11:49:46;13.90;71.60
26952;DHT22;14507;52.418;13.398;2023-04-27T11:52:13;13.90;69.20
26952;DHT22;14507;52.418;13.398;2023-04-27T11:54:38;13.90;69.80
26952;DHT22;14507;52.418;13.398;2023-04-27T11:57:05;13.90;68.60
26952;DHT22;14507;52.418;13.398;2023-04-27T11:59:31;13.80;68.70
26952;DHT22;14507;52.418;13.398;2023-04-27T12:01:56;13.70;69.60
26952;DHT22;14507;52.418;13.398;2023-04-27T12:04:22;13.60;69.30
26952;DHT22;14507;52.418;13.398;2023-04-27T12:06:48;13.60;68.10
26952;DHT22;14507;52.418;13.398;2023-04-27T12:09:14;13.40;68.00
26952;DHT22;14507;52.418;13.398;2023-04-27T12:11:41;13.40;67.70
26952;DHT22;14507;52.418;13.398;2023-04-27T12:14:07;13.30;67.50
26952;DHT22;14507;52.418;13.398;2023-04-27T12:16:32;13.30;68.50
26952;DHT22;14507;52.418;13.398;2023-04-27T12:18:58;13.30;69.10
26952;DHT22;14507;52.418;13.398;2023-04-27T12:21:24;13.30;70.30
26952;DHT22;14507;52.418;13.398;2023-04-27T12:23:49;13.30;66.80
26952;DHT22;14507;52.418;13.398;2023-04-27T12:26:15;13.30;67.10
26952;DHT22;14507;52.418;13.398;2023-04-27T12:28:41;13.40;67.60
26952;DHT22;14507;52.418;13.398;2023-04-27T12:31:07;13.50;67.60
26952;DHT22;14507;52.418;13.398;2023-04-27T12:33:33;13.70;67.90
26952;DHT22;14507;52.418;13.398;2023-04-27T12:35:58;13.90;67.10
26952;DHT22;14507;52.418;13.398;2023-04-27T12:38:24;14.00;70.10
26952;DHT22;14507;52.418;13.398;2023-04-27T12:40:49;14.10;69.30
26952;DHT22;14507;52.418;13.398;2023-04-27T12:43:15;14.30;68.30
26952;DHT22;14507;52.418;13.398;2023-04-27T12:45:41;14.40;66.90
26952;DHT22;14507;52.418;13.398;2023-04-27T12:48:07;14.50;66.70
26952;DHT22;14507;52.418;13.398;2023-04-27T12:50:33;14.60;65.20
26952;DHT22;14507;52.418;13.398;2023-04-27T12:53:01;14.80;63.50
26952;DHT22;14507;52.418;13.398;2023-04-27T12:55:26;14.90;63.60
26952;DHT22;14507;52.418;13.398;2023-04-27T12:57:52;14.90;65.30
26952;DHT22;14507;52.418;13.398;2023-04-27T13:00:18;14.90;64.00
26952;DHT22;14507;52.418;13.398;2023-04-27T13:02:43;14.80;64.10
26952;DHT22;14507;52.418;13.398;2023-04-27T13:05:10;14.70;65.80
26952;DHT22;14507;52.418;13.398;2023-04-27T13:07:36;14.70;65.90
26952;DHT22;14507;52.418;13.398;2023-04-27T13:10:02;14.70;65.70
26952;DHT22;14507;52.418;13.398;2023-04-27T13:12:28;14.60;65.40
26952;DHT22;14507;52.418;13.398;2023-04-27T13:14:54;14.50;67.80
26952;DHT22;14507;52.418;13.398;2023-04-27T13:17:20;14.60;67.10
26952;DHT22;14507;52.418;13.398;2023-04-27T13:19:46;14.60;65.70
26952;DHT22;14507;52.418;13.398;2023-04-27T13:22:12;14.60;68.40
26952;DHT22;14507;52.418;13.398;2023-04-27T13:24:37;14.70;67.40
26952;DHT22;14507;52.418;13.398;2023-04-27T13:27:03;14.70;67.70
26952;DHT22;14507;52.418;13.398;2023-04-27T13:29:29;14.90;67.80
26952;DHT22;14507;52.418;13.398;2023-04-27T13:31:55;15.00;68.90
26952;DHT22;14507;52.418;13.398;2023-04-27T13:34:21;15.00;66.10
26952;DHT22;14507;52.418;13.398;2023-04-27T13:36:46;14.90;65.80
26952;DHT22;14507;52.418;13.398;2023-04-27T13:39:12;14.90;65.60
26952;DHT22;14507;52.418;13.398;2023-04-27T13:41:37;14.90;65.40
26952;DHT22;14507;52.418;13.398;2023-04-27T13:44:03;14.90;65.80
26952;DHT22;14507;52.418;13.398;2023-04-27T13:46:31;14.80;65.80
26952;DHT22;14507;52.418;13.398;2023-04-27T13:48:57;14.80;63.50
26952;DHT22;14507;52.418;13.398;2023-04-27T13:51:23;14.70;63.80
26952;DHT22;14507;52.418;13.398;2023-04-27T13:53:49;14.60;64.80
26952;DHT22;14507;52.418;13.398;2023-04-27T13:56:15;14.50;63.50
26952;DHT22;14507;52.418;13.398;2023-04-27T13:58:41;14.50;63.90
26952;DHT22;14507;52.418;13.398;2023-04-27T14:01:06;14.50;66.50
26952;DHT22;14507;52.418;13.398;2023-04-27T14:03:33;14.50;65.30
26952;DHT22;14507;52.418;13.398;2023-04-27T14:05:59;14.50;68.30
26952;DHT22;14507;52.418;13.398;2023-04-27T14:08:25;14.60;67.40
26952;DHT22;14507;52.418;13.398;2023-04-27T14:10:51;14.70;64.10
26952;DHT22;14507;52.418;13.398;2023-04-27T14:13:17;14.70;64.40
26952;DHT22;14507;52.418;13.398;2023-04-27T14:15:44;14.70;63.40
26952;DHT22;14507;52.418;13.398;2023-04-27T14:18:10;14.80;62.30
26952;DHT22;14507;52.418;13.398;2023-04-27T14:20:36;14.80;62.00
26952;DHT22;14507;52.418;13.398;2023-04-27T14:23:04;14.70;62.30
26952;DHT22;14507;52.418;13.398;2023-04-27T14:25:30;14.60;62.40
26952;DHT22;14507;52.418;13.398;2023-04-27T14:28:00;14.50;62.40
26952;DHT22;14507;52.418;13.398;2023-04-27T14:30:26;14.50;63.50
26952;DHT22;14507;52.418;13.398;2023-04-27T14:32:52;14.40;62.80
26952;DHT22;14507;52.418;13.398;2023-04-27T14:35:19;14.30;63.90
26952;DHT22;14507;52.418;13.398;2023-04-27T14:37:45;14.30;64.70
26952;DHT22;14507;52.418;13.398;2023-04-27T14:40:12;14.20;64.40
26952;DHT22;14507;52.418;13.398;2023-04-27T14:42:37;14.20;64.20
26952;DHT22;14507;52.418;13.398;2023-04-27T14:45:04;14.20;64.70
26952;DHT22;14507;52.418;13.398;2023-04-27T14:47:29;14.10;65.30
26952;DHT22;14507;52.418;13.398;2023-04-27T14:49:55;14.10;65.60
26952;DHT22;14507;52.418;13.398;2023-04-27T14:52:21;14.10;64.30
26952;DHT22;14507;52.418;13.398;2023-04-27T14:54:47;14.20;64.00
26952;DHT22;14507;52.418;13.398;2023-04-27T14:57:12;14.20;63.50
26952;DHT22;14507;52.418;13.398;2023-04-27T14:59:38;14.20;64.80
26952;DHT22;14507;52.418;13.398;2023-04-27T15:02:04;14.20;63.70
26952;DHT22;14507;52.418;13.398;2023-04-27T15:04:30;14.20;63.60
26952;DHT22;14507;52.418;13.398;2023-04-27T15:06:56;14.10;64.20
26952;DHT22;14507;52.418;13.398;2023-04-27T15:09:21;14.10;63.40
26952;DHT22;14507;52.418;13.398;2023-04-27T15:11:47;14.10;64.60
26952;DHT22;14507;52.418;13.398;2023-04-27T15:14:13;14.20;64.50
26952;DHT22;14507;52.418;13.398;2023-04-27T15:16:38;14.30;64.00
26952;DHT22;14507;52.418;13.398;2023-04-27T15:19:04;14.30;64.00
26952;DHT22;14507;52.418;13.398;2023-04-27T15:21:30;14.40;64.20
26952;DHT22;14507;52.418;13.398;2023-04-27T15:23:56;14.50;64.30